TAF LEPP
LEPP 090200Z 0903/1003 27009KT 9999 FEW025 SCT035 TX07/0915Z TN02/0904Z PROB30 TEMPO 0903/0909 32015G25KT PROB40 TEMPO 0903/1003 3000 SHRA BKN010 SCT020TCU PROB30 TEMPO 0903/0906 3000 SHRA TS FEW025CB SCT030TCU TEMPO 0903/0906 1500 RASN BKN010 PROB30 TEMPO 0903/0906 1500 SN BKN010=
METAR LEPP
LEPP 090800Z VRB01KT 9999 -RA SCT012 BKN016 02/02 Q1016 RERA=
LEPP 090730Z 13004KT 9999 -RA SCT012 BKN019 02/02 Q1016=
LEPP 090700Z 15004KT 9999 -RA FEW009 BKN016 BKN022 02/02 Q1016 RERA=
LEPP 090630Z 17004KT 9999 -RA FEW017 SCT022 BKN030 02/02 Q1016 RERA=
LEPP 090600Z VRB02KT 9999 RA FEW017 SCT028 BKN035 02/02 Q1016=
WC LEPP
WS LEPP
WV LEPP